sensor_id;sensor_type;location;lat;lon;timestamp;P1;durP1;ratioP1;P2;durP2;ratioP2
6392;SDS011;3229;42.674;23.282;2024-03-08T00:01:31;4.70;;;4.10;;
6392;SDS011;3229;42.674;23.282;2024-03-08T00:04:00;4.17;;;3.77;;
6392;SDS011;3229;42.674;23.282;2024-03-08T00:06:26;4.43;;;4.03;;
6392;SDS011;3229;42.674;23.282;2024-03-08T00:08:53;4.13;;;3.77;;
6392;SDS011;3229;42.674;23.282;2024-03-08T00:11:21;5.50;;;4.13;;
6392;SDS011;3229;42.674;23.282;2024-03-08T00:13:51;3.90;;;3.60;;
6392;SDS011;3229;42.674;23.282;2024-03-08T00:16:17;3.90;;;3.50;;
6392;SDS011;3229;42.674;23.282;2024-03-08T00:18:44;3.60;;;3.30;;
6392;SDS011;3229;42.674;23.282;2024-03-08T00:21:12;3.63;;;3.33;;
6392;SDS011;3229;42.674;23.282;2024-03-08T00:23:40;3.20;;;2.90;;
6392;SDS011;3229;42.674;23.282;2024-03-08T00:26:07;3.97;;;3.57;;
6392;SDS011;3229;42.674;23.282;2024-03-08T00:28:34;3.40;;;3.10;;
6392;SDS011;3229;42.674;23.282;2024-03-08T00:31:01;3.60;;;3.30;;
6392;SDS011;3229;42.674;23.282;2024-03-08T00:33:28;3.43;;;3.13;;
6392;SDS011;3229;42.674;23.282;2024-03-08T00:35:55;3.70;;;3.10;;
6392;SDS011;3229;42.674;23.282;2024-03-08T00:38:23;3.40;;;3.10;;
6392;SDS011;3229;42.674;23.282;2024-03-08T00:40:50;3.37;;;3.07;;
6392;SDS011;3229;42.674;23.282;2024-03-08T00:43:17;2.73;;;2.53;;
6392;SDS011;3229;42.674;23.282;2024-03-08T00:45:44;2.90;;;2.70;;
6392;SDS011;3229;42.674;23.282;2024-03-08T00:48:10;3.10;;;2.80;;
6392;SDS011;3229;42.674;23.282;2024-03-08T00:50:37;3.00;;;2.80;;
6392;SDS011;3229;42.674;23.282;2024-03-08T00:53:04;2.63;;;2.50;;
6392;SDS011;3229;42.674;23.282;2024-03-08T00:55:32;3.37;;;2.90;;
6392;SDS011;3229;42.674;23.282;2024-03-08T00:58:00;2.70;;;2.50;;
6392;SDS011;3229;42.674;23.282;2024-03-08T01:00:27;3.03;;;2.73;;
6392;SDS011;3229;42.674;23.282;2024-03-08T01:02:53;3.40;;;2.77;;
6392;SDS011;3229;42.674;23.282;2024-03-08T01:05:20;2.70;;;2.50;;
6392;SDS011;3229;42.674;23.282;2024-03-08T01:07:48;2.83;;;2.57;;
6392;SDS011;3229;42.674;23.282;2024-03-08T01:10:15;2.50;;;2.30;;
6392;SDS011;3229;42.674;23.282;2024-03-08T01:12:43;2.63;;;2.43;;
6392;SDS011;3229;42.674;23.282;2024-03-08T01:15:10;2.30;;;2.10;;
6392;SDS011;3229;42.674;23.282;2024-03-08T01:17:37;2.23;;;2.07;;
6392;SDS011;3229;42.674;23.282;2024-03-08T01:20:04;3.07;;;2.20;;
6392;SDS011;3229;42.674;23.282;2024-03-08T01:22:31;2.27;;;2.17;;
6392;SDS011;3229;42.674;23.282;2024-03-08T01:24:58;2.30;;;2.10;;
6392;SDS011;3229;42.674;23.282;2024-03-08T01:27:25;2.20;;;2.03;;
6392;SDS011;3229;42.674;23.282;2024-03-08T01:29:53;2.73;;;2.53;;
6392;SDS011;3229;42.674;23.282;2024-03-08T01:32:20;2.37;;;2.27;;
6392;SDS011;3229;42.674;23.282;2024-03-08T01:34:48;2.30;;;2.10;;
6392;SDS011;3229;42.674;23.282;2024-03-08T01:37:14;2.00;;;1.90;;
6392;SDS011;3229;42.674;23.282;2024-03-08T01:39:41;2.00;;;1.90;;
6392;SDS011;3229;42.674;23.282;2024-03-08T01:42:08;2.00;;;1.90;;
6392;SDS011;3229;42.674;23.282;2024-03-08T01:44:36;2.20;;;2.00;;
6392;SDS011;3229;42.674;23.282;2024-03-08T01:47:05;2.13;;;2.03;;
6392;SDS011;3229;42.674;23.282;2024-03-08T01:49:33;2.97;;;2.40;;
6392;SDS011;3229;42.674;23.282;2024-03-08T01:52:00;1.90;;;1.80;;
6392;SDS011;3229;42.674;23.282;2024-03-08T01:54:27;2.40;;;2.20;;
6392;SDS011;3229;42.674;23.282;2024-03-08T01:56:55;2.00;;;1.90;;
6392;SDS011;3229;42.674;23.282;2024-03-08T01:59:23;2.03;;;1.93;;
6392;SDS011;3229;42.674;23.282;2024-03-08T02:01:52;2.07;;;1.80;;
6392;SDS011;3229;42.674;23.282;2024-03-08T02:04:22;1.87;;;1.77;;
6392;SDS011;3229;42.674;23.282;2024-03-08T02:06:49;2.07;;;1.97;;
6392;SDS011;3229;42.674;23.282;2024-03-08T02:09:17;1.83;;;1.73;;
6392;SDS011;3229;42.674;23.282;2024-03-08T02:11:43;1.87;;;1.77;;
6392;SDS011;3229;42.674;23.282;2024-03-08T02:14:11;2.30;;;2.10;;
6392;SDS011;3229;42.674;23.282;2024-03-08T02:16:38;1.90;;;1.80;;
6392;SDS011;3229;42.674;23.282;2024-03-08T02:19:04;2.03;;;1.93;;
6392;SDS011;3229;42.674;23.282;2024-03-08T02:21:35;2.20;;;2.00;;
6392;SDS011;3229;42.674;23.282;2024-03-08T02:24:03;2.20;;;1.90;;
6392;SDS011;3229;42.674;23.282;2024-03-08T02:26:30;1.53;;;1.53;;
6392;SDS011;3229;42.674;23.282;2024-03-08T02:28:57;1.77;;;1.67;;
6392;SDS011;3229;42.674;23.282;2024-03-08T02:31:24;2.27;;;2.10;;
6392;SDS011;3229;42.674;23.282;2024-03-08T02:33:51;1.90;;;1.80;;
6392;SDS011;3229;42.674;23.282;2024-03-08T02:36:17;1.90;;;1.80;;
6392;SDS011;3229;42.674;23.282;2024-03-08T02:38:45;1.70;;;1.60;;
6392;SDS011;3229;42.674;23.282;2024-03-08T02:41:12;2.00;;;1.90;;
6392;SDS011;3229;42.674;23.282;2024-03-08T02:43:39;2.00;;;1.90;;
6392;SDS011;3229;42.674;23.282;2024-03-08T02:46:06;1.80;;;1.70;;
6392;SDS011;3229;42.674;23.282;2024-03-08T02:48:32;1.60;;;1.50;;
6392;SDS011;3229;42.674;23.282;2024-03-08T02:51:00;1.93;;;1.83;;
6392;SDS011;3229;42.674;23.282;2024-03-08T02:53:27;1.80;;;1.70;;
6392;SDS011;3229;42.674;23.282;2024-03-08T02:55:55;1.70;;;1.60;;
6392;SDS011;3229;42.674;23.282;2024-03-08T02:58:22;1.90;;;1.80;;
6392;SDS011;3229;42.674;23.282;2024-03-08T03:00:49;1.90;;;1.80;;
6392;SDS011;3229;42.674;23.282;2024-03-08T03:03:16;2.03;;;1.60;;
6392;SDS011;3229;42.674;23.282;2024-03-08T03:05:42;1.87;;;1.77;;
6392;SDS011;3229;42.674;23.282;2024-03-08T03:08:09;1.70;;;1.60;;
6392;SDS011;3229;42.674;23.282;2024-03-08T03:10:37;1.50;;;1.50;;
6392;SDS011;3229;42.674;23.282;2024-03-08T03:13:05;1.50;;;1.50;;
6392;SDS011;3229;42.674;23.282;2024-03-08T03:15:33;1.90;;;1.80;;
6392;SDS011;3229;42.674;23.282;2024-03-08T03:18:00;2.03;;;1.93;;
6392;SDS011;3229;42.674;23.282;2024-03-08T03:20:27;2.27;;;2.07;;
6392;SDS011;3229;42.674;23.282;2024-03-08T03:22:57;1.80;;;1.70;;
6392;SDS011;3229;42.674;23.282;2024-03-08T03:25:26;1.70;;;1.60;;
6392;SDS011;3229;42.674;23.282;2024-03-08T03:27:58;1.70;;;1.60;;
6392;SDS011;3229;42.674;23.282;2024-03-08T03:30:26;1.80;;;1.70;;
6392;SDS011;3229;42.674;23.282;2024-03-08T03:32:58;1.83;;;1.73;;
6392;SDS011;3229;42.674;23.282;2024-03-08T03:35:25;2.00;;;1.80;;
6392;SDS011;3229;42.674;23.282;2024-03-08T03:37:53;1.67;;;1.57;;
6392;SDS011;3229;42.674;23.282;2024-03-08T03:40:27;1.80;;;1.70;;
6392;SDS011;3229;42.674;23.282;2024-03-08T03:42:54;1.83;;;1.73;;
6392;SDS011;3229;42.674;23.282;2024-03-08T03:45:21;1.77;;;1.67;;
6392;SDS011;3229;42.674;23.282;2024-03-08T03:47:49;1.70;;;1.60;;
6392;SDS011;3229;42.674;23.282;2024-03-08T03:50:16;1.70;;;1.60;;
6392;SDS011;3229;42.674;23.282;2024-03-08T03:52:44;1.77;;;1.67;;
6392;SDS011;3229;42.674;23.282;2024-03-08T03:55:11;2.20;;;1.70;;
6392;SDS011;3229;42.674;23.282;2024-03-08T03:57:38;1.57;;;1.57;;
6392;SDS011;3229;42.674;23.282;2024-03-08T04:00:06;1.70;;;1.60;;
6392;SDS011;3229;42.674;23.282;2024-03-08T04:02:35;1.80;;;1.70;;
6392;SDS011;3229;42.674;23.282;2024-03-08T04:05:05;1.70;;;1.60;;
6392;SDS011;3229;42.674;23.282;2024-03-08T04:07:32;1.70;;;1.60;;
6392;SDS011;3229;42.674;23.282;2024-03-08T04:09:59;2.00;;;1.90;;
6392;SDS011;3229;42.674;23.282;2024-03-08T04:12:25;1.60;;;1.50;;
6392;SDS011;3229;42.674;23.282;2024-03-08T04:14:54;1.80;;;1.70;;
6392;SDS011;3229;42.674;23.282;2024-03-08T04:17:20;1.40;;;1.40;;
6392;SDS011;3229;42.674;23.282;2024-03-08T04:19:49;1.87;;;1.77;;
6392;SDS011;3229;42.674;23.282;2024-03-08T04:22:17;1.70;;;1.60;;
6392;SDS011;3229;42.674;23.282;2024-03-08T04:24:44;1.83;;;1.73;;
6392;SDS011;3229;42.674;23.282;2024-03-08T04:27:11;1.90;;;1.80;;
6392;SDS011;3229;42.674;23.282;2024-03-08T04:29:37;1.60;;;1.50;;
6392;SDS011;3229;42.674;23.282;2024-03-08T04:32:04;1.97;;;1.70;;
6392;SDS011;3229;42.674;23.282;2024-03-08T04:34:33;1.80;;;1.70;;
6392;SDS011;3229;42.674;23.282;2024-03-08T04:37:00;1.90;;;1.80;;
6392;SDS011;3229;42.674;23.282;2024-03-08T04:39:31;1.90;;;1.80;;
6392;SDS011;3229;42.674;23.282;2024-03-08T04:41:58;3.27;;;1.70;;
6392;SDS011;3229;42.674;23.282;2024-03-08T04:44:29;1.80;;;1.70;;
6392;SDS011;3229;42.674;23.282;2024-03-08T04:46:56;2.10;;;1.90;;
6392;SDS011;3229;42.674;23.282;2024-03-08T04:49:23;1.77;;;1.67;;
6392;SDS011;3229;42.674;23.282;2024-03-08T04:51:50;1.70;;;1.60;;
6392;SDS011;3229;42.674;23.282;2024-03-08T04:54:17;1.53;;;1.50;;
6392;SDS011;3229;42.674;23.282;2024-03-08T04:56:45;2.00;;;1.90;;
6392;SDS011;3229;42.674;23.282;2024-03-08T04:59:12;1.77;;;1.67;;
6392;SDS011;3229;42.674;23.282;2024-03-08T05:01:39;1.93;;;1.83;;
6392;SDS011;3229;42.674;23.282;2024-03-08T05:04:05;2.23;;;2.13;;
6392;SDS011;3229;42.674;23.282;2024-03-08T05:06:32;1.90;;;1.80;;
6392;SDS011;3229;42.674;23.282;2024-03-08T05:08:59;2.80;;;1.90;;
6392;SDS011;3229;42.674;23.282;2024-03-08T05:11:26;2.20;;;2.10;;
6392;SDS011;3229;42.674;23.282;2024-03-08T05:13:54;2.63;;;2.43;;
6392;SDS011;3229;42.674;23.282;2024-03-08T05:16:21;2.30;;;2.20;;
6392;SDS011;3229;42.674;23.282;2024-03-08T05:18:49;2.40;;;2.20;;
6392;SDS011;3229;42.674;23.282;2024-03-08T05:21:16;2.13;;;2.00;;
6392;SDS011;3229;42.674;23.282;2024-03-08T05:23:45;2.23;;;2.07;;
6392;SDS011;3229;42.674;23.282;2024-03-08T05:26:13;2.30;;;2.10;;
6392;SDS011;3229;42.674;23.282;2024-03-08T05:28:40;2.20;;;2.10;;
6392;SDS011;3229;42.674;23.282;2024-03-08T05:31:08;2.30;;;2.10;;
6392;SDS011;3229;42.674;23.282;2024-03-08T05:33:35;2.40;;;2.20;;
6392;SDS011;3229;42.674;23.282;2024-03-08T05:36:02;2.80;;;2.53;;
6392;SDS011;3229;42.674;23.282;2024-03-08T05:38:29;2.67;;;2.47;;
6392;SDS011;3229;42.674;23.282;2024-03-08T05:40:55;2.80;;;2.60;;
6392;SDS011;3229;42.674;23.282;2024-03-08T05:43:22;3.03;;;2.47;;
6392;SDS011;3229;42.674;23.282;2024-03-08T05:45:50;3.17;;;2.63;;
6392;SDS011;3229;42.674;23.282;2024-03-08T05:48:18;3.10;;;2.80;;
6392;SDS011;3229;42.674;23.282;2024-03-08T05:50:45;2.90;;;2.40;;
6392;SDS011;3229;42.674;23.282;2024-03-08T05:53:12;4.00;;;3.00;;
6392;SDS011;3229;42.674;23.282;2024-03-08T05:55:39;3.30;;;2.77;;
6392;SDS011;3229;42.674;23.282;2024-03-08T05:58:06;3.33;;;2.73;;
6392;SDS011;3229;42.674;23.282;2024-03-08T06:00:33;4.13;;;3.27;;
6392;SDS011;3229;42.674;23.282;2024-03-08T06:03:01;6.43;;;3.80;;
6392;SDS011;3229;42.674;23.282;2024-03-08T06:05:30;3.30;;;3.00;;
6392;SDS011;3229;42.674;23.282;2024-03-08T06:07:57;4.00;;;3.37;;
6392;SDS011;3229;42.674;23.282;2024-03-08T06:10:24;4.20;;;3.17;;
6392;SDS011;3229;42.674;23.282;2024-03-08T06:12:50;4.13;;;3.00;;
6392;SDS011;3229;42.674;23.282;2024-03-08T06:15:17;5.13;;;2.80;;
6392;SDS011;3229;42.674;23.282;2024-03-08T06:17:46;2.40;;;2.20;;
6392;SDS011;3229;42.674;23.282;2024-03-08T06:20:12;7.77;;;2.40;;
6392;SDS011;3229;42.674;23.282;2024-03-08T06:22:41;4.43;;;2.23;;
6392;SDS011;3229;42.674;23.282;2024-03-08T06:25:09;8.73;;;3.83;;
6392;SDS011;3229;42.674;23.282;2024-03-08T06:27:40;15.80;;;9.37;;
6392;SDS011;3229;42.674;23.282;2024-03-08T06:30:07;11.00;;;8.50;;
6392;SDS011;3229;42.674;23.282;2024-03-08T06:32:35;17.37;;;10.00;;
6392;SDS011;3229;42.674;23.282;2024-03-08T06:35:02;9.80;;;6.70;;
6392;SDS011;3229;42.674;23.282;2024-03-08T06:37:34;10.27;;;6.27;;
6392;SDS011;3229;42.674;23.282;2024-03-08T06:40:02;6.83;;;4.70;;
6392;SDS011;3229;42.674;23.282;2024-03-08T06:42:30;15.47;;;5.80;;
6392;SDS011;3229;42.674;23.282;2024-03-08T06:44:59;6.50;;;4.80;;
6392;SDS011;3229;42.674;23.282;2024-03-08T06:47:29;6.63;;;5.47;;
6392;SDS011;3229;42.674;23.282;2024-03-08T06:49:56;6.13;;;4.93;;
6392;SDS011;3229;42.674;23.282;2024-03-08T06:52:23;7.43;;;4.57;;
6392;SDS011;3229;42.674;23.282;2024-03-08T06:54:50;5.50;;;4.47;;
6392;SDS011;3229;42.674;23.282;2024-03-08T06:57:18;6.37;;;4.90;;
6392;SDS011;3229;42.674;23.282;2024-03-08T06:59:47;6.27;;;4.90;;
6392;SDS011;3229;42.674;23.282;2024-03-08T07:02:14;5.63;;;4.17;;
6392;SDS011;3229;42.674;23.282;2024-03-08T07:04:40;7.03;;;4.30;;
6392;SDS011;3229;42.674;23.282;2024-03-08T07:07:07;6.00;;;4.53;;
6392;SDS011;3229;42.674;23.282;2024-03-08T07:09:35;6.73;;;4.17;;
6392;SDS011;3229;42.674;23.282;2024-03-08T07:12:01;4.73;;;4.00;;
6392;SDS011;3229;42.674;23.282;2024-03-08T07:14:30;5.83;;;4.70;;
6392;SDS011;3229;42.674;23.282;2024-03-08T07:16:57;4.77;;;3.93;;
6392;SDS011;3229;42.674;23.282;2024-03-08T07:19:24;4.73;;;4.20;;
6392;SDS011;3229;42.674;23.282;2024-03-08T07:21:50;5.30;;;3.83;;
6392;SDS011;3229;42.674;23.282;2024-03-08T07:24:17;4.53;;;3.93;;
6392;SDS011;3229;42.674;23.282;2024-03-08T07:27:03;6.57;;;3.83;;
6392;SDS011;3229;42.674;23.282;2024-03-08T07:29:31;4.00;;;3.60;;
6392;SDS011;3229;42.674;23.282;2024-03-08T07:31:58;3.73;;;3.43;;
6392;SDS011;3229;42.674;23.282;2024-03-08T07:34:37;5.27;;;4.10;;
6392;SDS011;3229;42.674;23.282;2024-03-08T07:37:05;4.87;;;3.87;;
6392;SDS011;3229;42.674;23.282;2024-03-08T07:39:36;3.70;;;3.40;;
6392;SDS011;3229;42.674;23.282;2024-03-08T07:42:03;6.00;;;3.87;;
6392;SDS011;3229;42.674;23.282;2024-03-08T07:44:32;3.77;;;3.37;;
6392;SDS011;3229;42.674;23.282;2024-03-08T07:46:59;3.90;;;3.50;;
6392;SDS011;3229;42.674;23.282;2024-03-08T07:49:26;3.70;;;3.40;;
6392;SDS011;3229;42.674;23.282;2024-03-08T07:51:52;4.03;;;3.40;;
6392;SDS011;3229;42.674;23.282;2024-03-08T07:54:19;4.43;;;3.53;;
6392;SDS011;3229;42.674;23.282;2024-03-08T07:56:46;5.10;;;3.67;;
6392;SDS011;3229;42.674;23.282;2024-03-08T07:59:14;4.50;;;3.87;;
6392;SDS011;3229;42.674;23.282;2024-03-08T08:01:42;4.30;;;3.87;;
6392;SDS011;3229;42.674;23.282;2024-03-08T08:04:09;5.23;;;4.07;;
6392;SDS011;3229;42.674;23.282;2024-03-08T08:06:39;7.20;;;4.60;;
6392;SDS011;3229;42.674;23.282;2024-03-08T08:09:07;3.60;;;3.30;;
6392;SDS011;3229;42.674;23.282;2024-03-08T08:11:39;5.13;;;4.00;;
6392;SDS011;3229;42.674;23.282;2024-03-08T08:14:08;4.57;;;4.10;;
6392;SDS011;3229;42.674;23.282;2024-03-08T08:16:35;4.87;;;4.10;;
6392;SDS011;3229;42.674;23.282;2024-03-08T08:19:04;4.30;;;3.67;;
6392;SDS011;3229;42.674;23.282;2024-03-08T08:21:33;6.07;;;3.57;;
6392;SDS011;3229;42.674;23.282;2024-03-08T08:24:00;5.13;;;3.93;;
6392;SDS011;3229;42.674;23.282;2024-03-08T08:26:28;4.00;;;3.70;;
6392;SDS011;3229;42.674;23.282;2024-03-08T08:28:55;4.07;;;3.67;;
6392;SDS011;3229;42.674;23.282;2024-03-08T08:31:22;5.77;;;4.40;;
6392;SDS011;3229;42.674;23.282;2024-03-08T08:33:48;4.33;;;3.93;;
6392;SDS011;3229;42.674;23.282;2024-03-08T08:36:18;4.50;;;3.77;;
6392;SDS011;3229;42.674;23.282;2024-03-08T08:38:45;5.97;;;4.30;;
6392;SDS011;3229;42.674;23.282;2024-03-08T08:41:12;5.00;;;3.63;;
6392;SDS011;3229;42.674;23.282;2024-03-08T08:43:39;4.20;;;3.57;;
6392;SDS011;3229;42.674;23.282;2024-03-08T08:46:09;4.00;;;3.70;;
6392;SDS011;3229;42.674;23.282;2024-03-08T08:48:38;4.53;;;4.13;;
6392;SDS011;3229;42.674;23.282;2024-03-08T08:51:06;4.53;;;4.00;;
6392;SDS011;3229;42.674;23.282;2024-03-08T08:53:34;4.33;;;3.93;;
6392;SDS011;3229;42.674;23.282;2024-03-08T08:56:01;4.67;;;4.00;;
6392;SDS011;3229;42.674;23.282;2024-03-08T08:58:28;4.73;;;3.63;;
6392;SDS011;3229;42.674;23.282;2024-03-08T09:00:54;4.57;;;4.17;;
6392;SDS011;3229;42.674;23.282;2024-03-08T09:03:21;5.23;;;3.90;;
6392;SDS011;3229;42.674;23.282;2024-03-08T09:05:48;4.40;;;3.87;;
6392;SDS011;3229;42.674;23.282;2024-03-08T09:08:15;4.30;;;3.50;;
6392;SDS011;3229;42.674;23.282;2024-03-08T09:10:43;4.73;;;3.87;;
6392;SDS011;3229;42.674;23.282;2024-03-08T09:13:10;4.40;;;3.57;;
6392;SDS011;3229;42.674;23.282;2024-03-08T09:15:36;5.00;;;4.50;;
6392;SDS011;3229;42.674;23.282;2024-03-08T09:18:05;4.93;;;3.70;;
6392;SDS011;3229;42.674;23.282;2024-03-08T09:20:32;4.20;;;3.60;;
6392;SDS011;3229;42.674;23.282;2024-03-08T09:22:59;3.63;;;3.30;;
6392;SDS011;3229;42.674;23.282;2024-03-08T09:25:25;4.43;;;3.40;;
6392;SDS011;3229;42.674;23.282;2024-03-08T09:27:54;4.00;;;3.60;;
6392;SDS011;3229;42.674;23.282;2024-03-08T09:30:21;4.67;;;3.63;;
6392;SDS011;3229;42.674;23.282;2024-03-08T09:32:48;3.67;;;3.00;;
6392;SDS011;3229;42.674;23.282;2024-03-08T09:35:16;3.30;;;2.97;;
6392;SDS011;3229;42.674;23.282;2024-03-08T09:37:43;3.93;;;3.27;;
6392;SDS011;3229;42.674;23.282;2024-03-08T09:40:09;3.63;;;3.00;;
6392;SDS011;3229;42.674;23.282;2024-03-08T09:42:40;5.00;;;3.17;;
6392;SDS011;3229;42.674;23.282;2024-03-08T09:45:09;4.43;;;3.00;;
6392;SDS011;3229;42.674;23.282;2024-03-08T09:47:37;3.40;;;3.10;;
6392;SDS011;3229;42.674;23.282;2024-03-08T09:50:07;3.63;;;3.33;;
6392;SDS011;3229;42.674;23.282;2024-03-08T09:52:35;3.20;;;2.93;;
6392;SDS011;3229;42.674;23.282;2024-03-08T09:55:03;4.17;;;3.00;;
6392;SDS011;3229;42.674;23.282;2024-03-08T09:57:31;3.07;;;2.87;;
6392;SDS011;3229;42.674;23.282;2024-03-08T09:59:58;4.33;;;3.17;;
6392;SDS011;3229;42.674;23.282;2024-03-08T10:02:26;4.90;;;3.23;;
6392;SDS011;3229;42.674;23.282;2024-03-08T10:04:53;2.70;;;2.50;;
6392;SDS011;3229;42.674;23.282;2024-03-08T10:07:20;7.17;;;2.83;;
6392;SDS011;3229;42.674;23.282;2024-03-08T10:09:47;3.10;;;2.80;;
6392;SDS011;3229;42.674;23.282;2024-03-08T10:12:15;3.30;;;3.00;;
6392;SDS011;3229;42.674;23.282;2024-03-08T10:14:44;2.93;;;2.73;;
6392;SDS011;3229;42.674;23.282;2024-03-08T10:17:11;3.80;;;2.97;;
6392;SDS011;3229;42.674;23.282;2024-03-08T10:19:40;5.00;;;3.03;;
6392;SDS011;3229;42.674;23.282;2024-03-08T10:22:16;2.83;;;2.63;;
6392;SDS011;3229;42.674;23.282;2024-03-08T10:24:44;2.83;;;2.50;;
6392;SDS011;3229;42.674;23.282;2024-03-08T10:27:11;3.77;;;2.60;;
6392;SDS011;3229;42.674;23.282;2024-03-08T10:29:38;2.70;;;2.40;;
6392;SDS011;3229;42.674;23.282;2024-03-08T10:32:09;4.10;;;2.97;;
6392;SDS011;3229;42.674;23.282;2024-03-08T10:34:37;2.80;;;2.60;;
6392;SDS011;3229;42.674;23.282;2024-03-08T10:37:05;6.03;;;2.43;;
6392;SDS011;3229;42.674;23.282;2024-03-08T10:39:37;3.93;;;2.67;;
6392;SDS011;3229;42.674;23.282;2024-03-08T10:42:04;3.90;;;2.57;;
6392;SDS011;3229;42.674;23.282;2024-03-08T10:44:40;2.73;;;2.50;;
6392;SDS011;3229;42.674;23.282;2024-03-08T10:47:17;2.50;;;2.30;;
6392;SDS011;3229;42.674;23.282;2024-03-08T10:49:49;3.40;;;2.70;;
6392;SDS011;3229;42.674;23.282;2024-03-08T10:52:20;2.70;;;2.27;;
6392;SDS011;3229;42.674;23.282;2024-03-08T10:54:48;2.37;;;2.20;;
6392;SDS011;3229;42.674;23.282;2024-03-08T10:57:17;3.93;;;2.70;;
6392;SDS011;3229;42.674;23.282;2024-03-08T10:59:46;3.30;;;2.33;;
6392;SDS011;3229;42.674;23.282;2024-03-08T11:02:14;2.50;;;2.30;;
6392;SDS011;3229;42.674;23.282;2024-03-08T11:04:47;2.57;;;2.37;;
6392;SDS011;3229;42.674;23.282;2024-03-08T11:07:15;2.47;;;2.03;;
6392;SDS011;3229;42.674;23.282;2024-03-08T11:09:46;2.30;;;2.10;;
6392;SDS011;3229;42.674;23.282;2024-03-08T11:12:21;2.60;;;2.20;;
6392;SDS011;3229;42.674;23.282;2024-03-08T11:14:51;2.87;;;2.67;;
6392;SDS011;3229;42.674;23.282;2024-03-08T11:17:22;2.03;;;1.93;;
6392;SDS011;3229;42.674;23.282;2024-03-08T11:20:08;3.27;;;2.70;;
6392;SDS011;3229;42.674;23.282;2024-03-08T11:22:40;4.40;;;2.37;;
6392;SDS011;3229;42.674;23.282;2024-03-08T11:28:06;2.43;;;2.23;;
6392;SDS011;3229;42.674;23.282;2024-03-08T11:30:42;2.83;;;2.13;;
6392;SDS011;3229;42.674;23.282;2024-03-08T11:33:11;2.17;;;2.00;;
6392;SDS011;3229;42.674;23.282;2024-03-08T11:35:38;2.13;;;2.03;;
6392;SDS011;3229;42.674;23.282;2024-03-08T11:38:07;2.20;;;2.07;;
6392;SDS011;3229;42.674;23.282;2024-03-08T11:40:36;2.40;;;2.20;;
6392;SDS011;3229;42.674;23.282;2024-03-08T11:43:05;2.20;;;2.00;;
6392;SDS011;3229;42.674;23.282;2024-03-08T11:45:32;2.90;;;2.23;;
6392;SDS011;3229;42.674;23.282;2024-03-08T11:48:01;2.13;;;1.93;;
6392;SDS011;3229;42.674;23.282;2024-03-08T11:50:29;2.27;;;2.07;;
6392;SDS011;3229;42.674;23.282;2024-03-08T11:53:01;2.37;;;2.17;;
6392;SDS011;3229;42.674;23.282;2024-03-08T11:55:29;1.90;;;1.80;;
6392;SDS011;3229;42.674;23.282;2024-03-08T11:58:01;3.47;;;2.20;;
6392;SDS011;3229;42.674;23.282;2024-03-08T12:00:29;2.27;;;2.10;;
6392;SDS011;3229;42.674;23.282;2024-03-08T12:03:04;2.03;;;1.87;;
6392;SDS011;3229;42.674;23.282;2024-03-08T12:05:32;2.10;;;1.93;;
6392;SDS011;3229;42.674;23.282;2024-03-08T12:07:59;2.07;;;1.93;;
6392;SDS011;3229;42.674;23.282;2024-03-08T12:10:27;1.97;;;1.87;;
6392;SDS011;3229;42.674;23.282;2024-03-08T12:12:54;3.47;;;2.10;;
6392;SDS011;3229;42.674;23.282;2024-03-08T12:15:26;2.80;;;1.80;;
6392;SDS011;3229;42.674;23.282;2024-03-08T12:17:54;2.30;;;2.10;;
6392;SDS011;3229;42.674;23.282;2024-03-08T12:20:22;3.07;;;2.40;;
6392;SDS011;3229;42.674;23.282;2024-03-08T12:22:50;2.10;;;1.90;;
6392;SDS011;3229;42.674;23.282;2024-03-08T12:25:18;2.33;;;1.83;;
6392;SDS011;3229;42.674;23.282;2024-03-08T12:27:46;2.30;;;1.90;;
6392;SDS011;3229;42.674;23.282;2024-03-08T12:30:19;4.37;;;2.10;;
6392;SDS011;3229;42.674;23.282;2024-03-08T12:32:54;1.90;;;1.80;;
6392;SDS011;3229;42.674;23.282;2024-03-08T12:35:23;2.07;;;1.93;;
6392;SDS011;3229;42.674;23.282;2024-03-08T12:37:50;1.93;;;1.70;;
6392;SDS011;3229;42.674;23.282;2024-03-08T12:40:19;2.20;;;1.90;;
6392;SDS011;3229;42.674;23.282;2024-03-08T12:42:52;2.03;;;1.90;;
6392;SDS011;3229;42.674;23.282;2024-03-08T12:45:18;2.37;;;2.00;;
6392;SDS011;3229;42.674;23.282;2024-03-08T12:47:47;2.67;;;2.30;;
6392;SDS011;3229;42.674;23.282;2024-03-08T12:50:16;2.10;;;1.93;;
6392;SDS011;3229;42.674;23.282;2024-03-08T12:52:43;3.40;;;2.00;;
6392;SDS011;3229;42.674;23.282;2024-03-08T12:55:10;2.17;;;2.00;;
6392;SDS011;3229;42.674;23.282;2024-03-08T12:57:37;2.33;;;2.13;;
6392;SDS011;3229;42.674;23.282;2024-03-08T13:00:05;2.47;;;2.27;;
6392;SDS011;3229;42.674;23.282;2024-03-08T13:02:38;2.20;;;2.10;;
6392;SDS011;3229;42.674;23.282;2024-03-08T13:05:05;2.63;;;2.13;;
6392;SDS011;3229;42.674;23.282;2024-03-08T13:07:36;2.23;;;2.13;;
6392;SDS011;3229;42.674;23.282;2024-03-08T13:10:03;2.43;;;2.20;;
6392;SDS011;3229;42.674;23.282;2024-03-08T13:12:32;2.03;;;1.87;;
6392;SDS011;3229;42.674;23.282;2024-03-08T13:15:00;2.07;;;1.97;;
6392;SDS011;3229;42.674;23.282;2024-03-08T13:17:26;2.07;;;1.90;;
6392;SDS011;3229;42.674;23.282;2024-03-08T13:19:54;2.30;;;2.10;;
6392;SDS011;3229;42.674;23.282;2024-03-08T13:22:23;2.93;;;2.10;;
6392;SDS011;3229;42.674;23.282;2024-03-08T13:24:51;2.43;;;2.23;;
6392;SDS011;3229;42.674;23.282;2024-03-08T13:27:18;2.77;;;2.27;;
6392;SDS011;3229;42.674;23.282;2024-03-08T13:29:46;2.37;;;1.93;;
6392;SDS011;3229;42.674;23.282;2024-03-08T13:32:14;4.57;;;1.80;;
6392;SDS011;3229;42.674;23.282;2024-03-08T13:34:41;2.10;;;1.97;;
6392;SDS011;3229;42.674;23.282;2024-03-08T13:37:08;2.50;;;1.90;;
6392;SDS011;3229;42.674;23.282;2024-03-08T13:39:36;2.07;;;1.93;;
6392;SDS011;3229;42.674;23.282;2024-03-08T13:42:10;2.80;;;2.20;;
6392;SDS011;3229;42.674;23.282;2024-03-08T13:44:38;2.30;;;2.10;;
6392;SDS011;3229;42.674;23.282;2024-03-08T13:47:06;2.93;;;2.10;;
6392;SDS011;3229;42.674;23.282;2024-03-08T13:49:33;1.97;;;1.77;;
6392;SDS011;3229;42.674;23.282;2024-03-08T13:52:00;2.30;;;2.10;;
6392;SDS011;3229;42.674;23.282;2024-03-08T13:54:26;2.10;;;1.90;;
6392;SDS011;3229;42.674;23.282;2024-03-08T13:56:56;3.20;;;2.20;;
6392;SDS011;3229;42.674;23.282;2024-03-08T13:59:25;2.13;;;1.93;;
6392;SDS011;3229;42.674;23.282;2024-03-08T14:01:54;3.13;;;2.20;;
6392;SDS011;3229;42.674;23.282;2024-03-08T14:04:22;2.73;;;1.80;;
6392;SDS011;3229;42.674;23.282;2024-03-08T14:06:50;2.00;;;1.90;;
6392;SDS011;3229;42.674;23.282;2024-03-08T14:09:21;2.37;;;2.17;;
6392;SDS011;3229;42.674;23.282;2024-03-08T14:11:49;5.30;;;2.47;;
6392;SDS011;3229;42.674;23.282;2024-03-08T14:14:19;1.90;;;1.80;;
6392;SDS011;3229;42.674;23.282;2024-03-08T14:16:47;2.00;;;1.90;;
6392;SDS011;3229;42.674;23.282;2024-03-08T14:19:14;3.77;;;2.10;;
6392;SDS011;3229;42.674;23.282;2024-03-08T14:21:41;2.50;;;2.13;;
6392;SDS011;3229;42.674;23.282;2024-03-08T14:24:08;2.07;;;1.97;;
6392;SDS011;3229;42.674;23.282;2024-03-08T14:26:35;2.20;;;2.00;;
6392;SDS011;3229;42.674;23.282;2024-03-08T14:29:03;2.00;;;1.80;;
6392;SDS011;3229;42.674;23.282;2024-03-08T14:31:30;2.10;;;1.90;;
6392;SDS011;3229;42.674;23.282;2024-03-08T14:33:58;2.63;;;2.20;;
6392;SDS011;3229;42.674;23.282;2024-03-08T14:36:25;1.97;;;1.87;;
6392;SDS011;3229;42.674;23.282;2024-03-08T14:38:53;2.20;;;2.00;;
6392;SDS011;3229;42.674;23.282;2024-03-08T14:41:19;2.43;;;2.23;;
6392;SDS011;3229;42.674;23.282;2024-03-08T14:43:47;1.93;;;1.80;;
6392;SDS011;3229;42.674;23.282;2024-03-08T14:46:14;3.47;;;2.20;;
6392;SDS011;3229;42.674;23.282;2024-03-08T14:48:43;2.30;;;2.10;;
6392;SDS011;3229;42.674;23.282;2024-03-08T14:51:12;2.43;;;2.20;;
6392;SDS011;3229;42.674;23.282;2024-03-08T14:53:40;3.50;;;2.50;;
6392;SDS011;3229;42.674;23.282;2024-03-08T14:56:07;2.70;;;2.50;;
6392;SDS011;3229;42.674;23.282;2024-03-08T14:58:34;2.80;;;2.60;;
6392;SDS011;3229;42.674;23.282;2024-03-08T15:01:03;3.43;;;2.43;;
6392;SDS011;3229;42.674;23.282;2024-03-08T15:03:34;2.97;;;2.63;;
6392;SDS011;3229;42.674;23.282;2024-03-08T15:06:02;2.70;;;2.47;;
6392;SDS011;3229;42.674;23.282;2024-03-08T15:08:34;2.90;;;2.70;;